sensor_id;sensor_type;location;lat;lon;timestamp;temperature;humidity
28520;DHT22;15732;48.534;20.382;2023-09-19T00:01:52;19.70;99.90
28520;DHT22;15732;48.534;20.382;2023-09-19T00:04:26;19.70;99.90
28520;DHT22;15732;48.534;20.382;2023-09-19T00:06:55;19.70;99.90
28520;DHT22;15732;48.534;20.382;2023-09-19T00:09:23;19.70;99.90
28520;DHT22;15732;48.534;20.382;2023-09-19T00:11:53;19.70;99.90
28520;DHT22;15732;48.534;20.382;2023-09-19T00:14:20;19.80;99.90
28520;DHT22;15732;48.534;20.382;2023-09-19T00:16:51;19.80;99.90
28520;DHT22;15732;48.534;20.382;2023-09-19T00:19:18;19.70;99.90
28520;DHT22;15732;48.534;20.382;2023-09-19T00:21:49;19.70;99.90
28520;DHT22;15732;48.534;20.382;2023-09-19T00:24:17;19.70;99.90
28520;DHT22;15732;48.534;20.382;2023-09-19T00:26:45;19.60;99.90
28520;DHT22;15732;48.534;20.382;2023-09-19T00:29:16;19.70;99.90
28520;DHT22;15732;48.534;20.382;2023-09-19T00:31:44;19.70;99.90
28520;DHT22;15732;48.534;20.382;2023-09-19T00:34:12;19.80;99.90
28520;DHT22;15732;48.534;20.382;2023-09-19T00:36:39;19.80;99.90
28520;DHT22;15732;48.534;20.382;2023-09-19T00:39:06;19.80;99.90
28520;DHT22;15732;48.534;20.382;2023-09-19T00:41:35;19.80;99.90
28520;DHT22;15732;48.534;20.382;2023-09-19T00:44:03;19.90;99.90
28520;DHT22;15732;48.534;20.382;2023-09-19T00:46:32;19.90;99.90
28520;DHT22;15732;48.534;20.382;2023-09-19T00:48:59;19.90;99.90
28520;DHT22;15732;48.534;20.382;2023-09-19T00:51:27;19.90;99.90
28520;DHT22;15732;48.534;20.382;2023-09-19T00:53:56;19.90;99.90
28520;DHT22;15732;48.534;20.382;2023-09-19T00:56:25;19.90;99.90
28520;DHT22;15732;48.534;20.382;2023-09-19T00:58:52;19.90;99.90
28520;DHT22;15732;48.534;20.382;2023-09-19T01:01:20;19.80;99.90
28520;DHT22;15732;48.534;20.382;2023-09-19T01:03:47;19.80;99.90
28520;DHT22;15732;48.534;20.382;2023-09-19T01:06:14;19.70;99.90
28520;DHT22;15732;48.534;20.382;2023-09-19T01:08:42;19.60;99.90
28520;DHT22;15732;48.534;20.382;2023-09-19T01:11:27;19.50;99.90
28520;DHT22;15732;48.534;20.382;2023-09-19T01:23:05;19.30;99.90
28520;DHT22;15732;48.534;20.382;2023-09-19T01:25:50;19.30;99.90
28520;DHT22;15732;48.534;20.382;2023-09-19T01:31:09;19.20;99.90
28520;DHT22;15732;48.534;20.382;2023-09-19T01:36:35;19.10;99.90
28520;DHT22;15732;48.534;20.382;2023-09-19T01:39:11;19.20;99.90
28520;DHT22;15732;48.534;20.382;2023-09-19T01:41:51;19.10;99.90
28520;DHT22;15732;48.534;20.382;2023-09-19T01:47:32;19.10;99.90
28520;DHT22;15732;48.534;20.382;2023-09-19T01:53:07;19.10;99.90
28520;DHT22;15732;48.534;20.382;2023-09-19T01:55:41;19.20;99.90
28520;DHT22;15732;48.534;20.382;2023-09-19T01:58:27;19.20;99.90
28520;DHT22;15732;48.534;20.382;2023-09-19T02:01:00;19.30;99.90
28520;DHT22;15732;48.534;20.382;2023-09-19T02:03:28;19.30;99.90
28520;DHT22;15732;48.534;20.382;2023-09-19T02:05:55;19.40;99.90
28520;DHT22;15732;48.534;20.382;2023-09-19T02:08:23;19.40;99.90
28520;DHT22;15732;48.534;20.382;2023-09-19T02:10:52;19.40;99.90
28520;DHT22;15732;48.534;20.382;2023-09-19T02:13:21;19.40;99.90
28520;DHT22;15732;48.534;20.382;2023-09-19T02:15:49;19.40;99.90
28520;DHT22;15732;48.534;20.382;2023-09-19T02:18:16;19.50;99.90
28520;DHT22;15732;48.534;20.382;2023-09-19T02:20:43;19.40;99.90
28520;DHT22;15732;48.534;20.382;2023-09-19T02:23:14;19.40;99.90
28520;DHT22;15732;48.534;20.382;2023-09-19T02:25:42;19.40;99.90
28520;DHT22;15732;48.534;20.382;2023-09-19T02:28:09;19.40;99.90
28520;DHT22;15732;48.534;20.382;2023-09-19T02:30:38;19.40;99.90
28520;DHT22;15732;48.534;20.382;2023-09-19T02:33:05;19.40;99.90
28520;DHT22;15732;48.534;20.382;2023-09-19T02:35:33;19.40;99.90
28520;DHT22;15732;48.534;20.382;2023-09-19T02:38:03;19.40;99.90
28520;DHT22;15732;48.534;20.382;2023-09-19T02:40:33;19.40;99.90
28520;DHT22;15732;48.534;20.382;2023-09-19T02:43:02;19.30;99.90
28520;DHT22;15732;48.534;20.382;2023-09-19T02:45:31;19.30;99.90
28520;DHT22;15732;48.534;20.382;2023-09-19T02:47:59;19.30;99.90
28520;DHT22;15732;48.534;20.382;2023-09-19T02:50:27;19.20;99.90
28520;DHT22;15732;48.534;20.382;2023-09-19T02:52:54;19.20;99.90
28520;DHT22;15732;48.534;20.382;2023-09-19T02:55:22;19.10;99.90
28520;DHT22;15732;48.534;20.382;2023-09-19T02:57:51;19.10;99.90
28520;DHT22;15732;48.534;20.382;2023-09-19T03:00:20;19.00;99.90
28520;DHT22;15732;48.534;20.382;2023-09-19T03:03:07;18.90;99.90
28520;DHT22;15732;48.534;20.382;2023-09-19T03:05:35;18.90;99.90
28520;DHT22;15732;48.534;20.382;2023-09-19T03:08:03;18.90;99.90
28520;DHT22;15732;48.534;20.382;2023-09-19T03:10:31;18.90;99.90
28520;DHT22;15732;48.534;20.382;2023-09-19T03:12:58;18.90;99.90
28520;DHT22;15732;48.534;20.382;2023-09-19T03:15:29;18.90;99.90
28520;DHT22;15732;48.534;20.382;2023-09-19T03:17:56;19.00;99.90
28520;DHT22;15732;48.534;20.382;2023-09-19T03:20:28;19.00;99.90
28520;DHT22;15732;48.534;20.382;2023-09-19T03:22:56;19.10;99.90
28520;DHT22;15732;48.534;20.382;2023-09-19T03:25:23;19.10;99.90
28520;DHT22;15732;48.534;20.382;2023-09-19T03:27:51;19.10;99.90
28520;DHT22;15732;48.534;20.382;2023-09-19T03:30:18;19.20;99.90
28520;DHT22;15732;48.534;20.382;2023-09-19T03:32:47;19.20;99.90
28520;DHT22;15732;48.534;20.382;2023-09-19T03:35:17;19.10;99.90
28520;DHT22;15732;48.534;20.382;2023-09-19T03:37:44;19.10;99.90
28520;DHT22;15732;48.534;20.382;2023-09-19T03:40:11;19.10;99.90
28520;DHT22;15732;48.534;20.382;2023-09-19T03:42:39;19.10;99.90
28520;DHT22;15732;48.534;20.382;2023-09-19T03:45:09;19.10;99.90
28520;DHT22;15732;48.534;20.382;2023-09-19T03:47:42;19.10;99.90
28520;DHT22;15732;48.534;20.382;2023-09-19T03:50:09;19.10;99.90
28520;DHT22;15732;48.534;20.382;2023-09-19T03:52:37;19.00;99.90
28520;DHT22;15732;48.534;20.382;2023-09-19T03:55:08;19.00;99.90
28520;DHT22;15732;48.534;20.382;2023-09-19T03:57:36;19.00;99.90
28520;DHT22;15732;48.534;20.382;2023-09-19T04:00:05;19.00;99.90
28520;DHT22;15732;48.534;20.382;2023-09-19T04:02:38;19.00;99.90
28520;DHT22;15732;48.534;20.382;2023-09-19T04:05:07;19.00;99.90
28520;DHT22;15732;48.534;20.382;2023-09-19T04:07:35;19.00;99.90
28520;DHT22;15732;48.534;20.382;2023-09-19T04:10:02;19.00;99.90
28520;DHT22;15732;48.534;20.382;2023-09-19T04:12:30;19.00;99.90
28520;DHT22;15732;48.534;20.382;2023-09-19T04:14:57;19.00;99.90
28520;DHT22;15732;48.534;20.382;2023-09-19T04:17:25;19.00;99.90
28520;DHT22;15732;48.534;20.382;2023-09-19T04:19:52;19.00;99.90
28520;DHT22;15732;48.534;20.382;2023-09-19T04:22:20;19.00;99.90
28520;DHT22;15732;48.534;20.382;2023-09-19T04:24:47;18.90;99.90
28520;DHT22;15732;48.534;20.382;2023-09-19T04:27:14;18.90;99.90
28520;DHT22;15732;48.534;20.382;2023-09-19T04:29:42;18.90;99.90
28520;DHT22;15732;48.534;20.382;2023-09-19T04:32:13;18.80;99.90
28520;DHT22;15732;48.534;20.382;2023-09-19T04:34:42;18.80;99.90
28520;DHT22;15732;48.534;20.382;2023-09-19T04:37:09;18.70;99.90
28520;DHT22;15732;48.534;20.382;2023-09-19T04:39:37;18.70;99.90
28520;DHT22;15732;48.534;20.382;2023-09-19T04:42:06;18.70;99.90
28520;DHT22;15732;48.534;20.382;2023-09-19T04:44:33;18.70;99.90
28520;DHT22;15732;48.534;20.382;2023-09-19T04:47:00;18.70;99.90
28520;DHT22;15732;48.534;20.382;2023-09-19T04:49:28;18.60;99.90
28520;DHT22;15732;48.534;20.382;2023-09-19T04:51:55;18.60;99.90
28520;DHT22;15732;48.534;20.382;2023-09-19T04:54:22;18.60;99.90
28520;DHT22;15732;48.534;20.382;2023-09-19T04:56:50;18.60;99.90
28520;DHT22;15732;48.534;20.382;2023-09-19T04:59:17;18.60;99.90
28520;DHT22;15732;48.534;20.382;2023-09-19T05:01:45;18.60;99.90
28520;DHT22;15732;48.534;20.382;2023-09-19T05:04:13;18.60;99.90
28520;DHT22;15732;48.534;20.382;2023-09-19T05:06:40;18.70;99.90
28520;DHT22;15732;48.534;20.382;2023-09-19T05:09:08;18.70;99.90
28520;DHT22;15732;48.534;20.382;2023-09-19T05:11:36;18.70;99.90
28520;DHT22;15732;48.534;20.382;2023-09-19T05:14:05;18.70;99.90
28520;DHT22;15732;48.534;20.382;2023-09-19T05:16:32;18.70;99.90
28520;DHT22;15732;48.534;20.382;2023-09-19T05:19:00;18.60;99.90
28520;DHT22;15732;48.534;20.382;2023-09-19T05:21:28;18.60;99.90
28520;DHT22;15732;48.534;20.382;2023-09-19T05:23:58;18.70;99.90
28520;DHT22;15732;48.534;20.382;2023-09-19T05:26:25;18.70;99.90
28520;DHT22;15732;48.534;20.382;2023-09-19T05:28:53;18.80;99.90
28520;DHT22;15732;48.534;20.382;2023-09-19T05:31:20;18.80;99.90
28520;DHT22;15732;48.534;20.382;2023-09-19T05:33:47;18.80;99.90
28520;DHT22;15732;48.534;20.382;2023-09-19T05:36:14;18.80;99.90
28520;DHT22;15732;48.534;20.382;2023-09-19T05:38:42;18.90;99.90
28520;DHT22;15732;48.534;20.382;2023-09-19T05:41:11;18.90;99.90
28520;DHT22;15732;48.534;20.382;2023-09-19T05:43:40;18.90;99.90
28520;DHT22;15732;48.534;20.382;2023-09-19T05:46:08;19.00;99.90
28520;DHT22;15732;48.534;20.382;2023-09-19T05:48:35;18.90;99.90
28520;DHT22;15732;48.534;20.382;2023-09-19T05:51:02;18.90;99.90
28520;DHT22;15732;48.534;20.382;2023-09-19T05:53:29;18.80;99.90
28520;DHT22;15732;48.534;20.382;2023-09-19T05:55:57;18.80;99.90
28520;DHT22;15732;48.534;20.382;2023-09-19T05:58:27;18.70;99.90
28520;DHT22;15732;48.534;20.382;2023-09-19T06:00:55;18.70;99.90
28520;DHT22;15732;48.534;20.382;2023-09-19T06:03:24;18.60;99.90
28520;DHT22;15732;48.534;20.382;2023-09-19T06:05:51;18.60;99.90
28520;DHT22;15732;48.534;20.382;2023-09-19T06:08:19;18.60;99.90
28520;DHT22;15732;48.534;20.382;2023-09-19T06:10:47;18.60;99.90
28520;DHT22;15732;48.534;20.382;2023-09-19T06:13:15;18.60;99.90
28520;DHT22;15732;48.534;20.382;2023-09-19T06:15:47;18.50;99.90
28520;DHT22;15732;48.534;20.382;2023-09-19T06:18:16;18.50;99.90
28520;DHT22;15732;48.534;20.382;2023-09-19T06:20:49;18.40;99.90
28520;DHT22;15732;48.534;20.382;2023-09-19T06:23:17;18.40;99.90
28520;DHT22;15732;48.534;20.382;2023-09-19T06:25:44;18.40;99.90
28520;DHT22;15732;48.534;20.382;2023-09-19T06:28:11;18.40;99.90
28520;DHT22;15732;48.534;20.382;2023-09-19T06:30:39;18.50;99.90
28520;DHT22;15732;48.534;20.382;2023-09-19T06:33:09;18.50;99.90
28520;DHT22;15732;48.534;20.382;2023-09-19T06:35:39;18.50;99.90
28520;DHT22;15732;48.534;20.382;2023-09-19T06:38:07;18.50;99.90
28520;DHT22;15732;48.534;20.382;2023-09-19T06:40:38;18.50;99.90
28520;DHT22;15732;48.534;20.382;2023-09-19T06:43:10;18.50;99.90
28520;DHT22;15732;48.534;20.382;2023-09-19T06:45:41;18.50;99.90
28520;DHT22;15732;48.534;20.382;2023-09-19T06:48:09;18.60;99.90
28520;DHT22;15732;48.534;20.382;2023-09-19T06:50:36;18.60;99.90
28520;DHT22;15732;48.534;20.382;2023-09-19T06:53:05;18.60;99.90
28520;DHT22;15732;48.534;20.382;2023-09-19T06:55:32;18.60;99.90
28520;DHT22;15732;48.534;20.382;2023-09-19T06:58:01;18.50;99.90
28520;DHT22;15732;48.534;20.382;2023-09-19T07:00:28;18.50;99.90
28520;DHT22;15732;48.534;20.382;2023-09-19T07:02:58;18.40;99.90
28520;DHT22;15732;48.534;20.382;2023-09-19T07:05:27;18.30;99.90
28520;DHT22;15732;48.534;20.382;2023-09-19T07:07:54;18.40;99.90
28520;DHT22;15732;48.534;20.382;2023-09-19T07:10:22;18.40;99.90
28520;DHT22;15732;48.534;20.382;2023-09-19T07:13:14;18.40;99.90
28520;DHT22;15732;48.534;20.382;2023-09-19T07:15:44;18.30;99.90
28520;DHT22;15732;48.534;20.382;2023-09-19T07:18:15;18.30;99.90
28520;DHT22;15732;48.534;20.382;2023-09-19T07:20:44;18.30;99.90
28520;DHT22;15732;48.534;20.382;2023-09-19T07:23:21;18.30;99.90
28520;DHT22;15732;48.534;20.382;2023-09-19T07:25:49;18.20;99.90
28520;DHT22;15732;48.534;20.382;2023-09-19T07:28:17;18.20;99.90
28520;DHT22;15732;48.534;20.382;2023-09-19T07:30:44;18.10;99.90
28520;DHT22;15732;48.534;20.382;2023-09-19T07:33:11;18.10;99.90
28520;DHT22;15732;48.534;20.382;2023-09-19T07:35:38;18.10;99.90
28520;DHT22;15732;48.534;20.382;2023-09-19T07:38:08;18.10;99.90
28520;DHT22;15732;48.534;20.382;2023-09-19T07:40:38;18.10;99.90
28520;DHT22;15732;48.534;20.382;2023-09-19T07:43:05;18.10;99.90
28520;DHT22;15732;48.534;20.382;2023-09-19T07:45:33;18.20;99.90
28520;DHT22;15732;48.534;20.382;2023-09-19T07:48:00;18.10;99.90
28520;DHT22;15732;48.534;20.382;2023-09-19T07:50:34;18.20;99.90
28520;DHT22;15732;48.534;20.382;2023-09-19T07:53:04;18.20;99.90
28520;DHT22;15732;48.534;20.382;2023-09-19T07:55:32;18.20;99.90
28520;DHT22;15732;48.534;20.382;2023-09-19T07:58:00;18.20;99.90
28520;DHT22;15732;48.534;20.382;2023-09-19T08:00:33;18.20;99.90
28520;DHT22;15732;48.534;20.382;2023-09-19T08:03:01;18.10;99.90
28520;DHT22;15732;48.534;20.382;2023-09-19T08:05:30;18.20;99.90
28520;DHT22;15732;48.534;20.382;2023-09-19T08:08:00;18.20;99.90
28520;DHT22;15732;48.534;20.382;2023-09-19T08:10:29;18.10;99.90
28520;DHT22;15732;48.534;20.382;2023-09-19T08:13:01;18.10;99.90
28520;DHT22;15732;48.534;20.382;2023-09-19T08:15:29;18.20;99.90
28520;DHT22;15732;48.534;20.382;2023-09-19T08:17:56;18.20;99.90
28520;DHT22;15732;48.534;20.382;2023-09-19T08:20:24;18.20;99.90
28520;DHT22;15732;48.534;20.382;2023-09-19T08:22:55;18.20;99.90
28520;DHT22;15732;48.534;20.382;2023-09-19T08:25:22;18.20;99.90
28520;DHT22;15732;48.534;20.382;2023-09-19T08:27:50;18.20;99.90
28520;DHT22;15732;48.534;20.382;2023-09-19T08:30:21;18.20;99.90
28520;DHT22;15732;48.534;20.382;2023-09-19T08:33:00;18.30;99.90
28520;DHT22;15732;48.534;20.382;2023-09-19T08:35:28;18.20;99.90
28520;DHT22;15732;48.534;20.382;2023-09-19T08:37:55;18.20;99.90
28520;DHT22;15732;48.534;20.382;2023-09-19T08:40:23;18.30;99.90
28520;DHT22;15732;48.534;20.382;2023-09-19T08:42:52;18.30;99.90
28520;DHT22;15732;48.534;20.382;2023-09-19T08:45:21;18.30;99.90
28520;DHT22;15732;48.534;20.382;2023-09-19T08:48:00;18.40;99.90
28520;DHT22;15732;48.534;20.382;2023-09-19T08:50:37;18.40;99.90
28520;DHT22;15732;48.534;20.382;2023-09-19T08:53:11;18.40;99.90
28520;DHT22;15732;48.534;20.382;2023-09-19T08:55:47;18.40;99.90
28520;DHT22;15732;48.534;20.382;2023-09-19T08:58:17;18.50;99.90
28520;DHT22;15732;48.534;20.382;2023-09-19T09:00:49;18.50;99.90
28520;DHT22;15732;48.534;20.382;2023-09-19T09:03:18;18.50;99.90
28520;DHT22;15732;48.534;20.382;2023-09-19T09:05:48;18.50;99.90
28520;DHT22;15732;48.534;20.382;2023-09-19T09:08:19;18.50;99.90
28520;DHT22;15732;48.534;20.382;2023-09-19T09:10:48;18.50;99.90
28520;DHT22;15732;48.534;20.382;2023-09-19T09:13:15;18.50;99.90
28520;DHT22;15732;48.534;20.382;2023-09-19T09:15:43;18.50;99.90
28520;DHT22;15732;48.534;20.382;2023-09-19T09:18:11;18.50;99.90
28520;DHT22;15732;48.534;20.382;2023-09-19T09:20:39;18.40;99.90
28520;DHT22;15732;48.534;20.382;2023-09-19T09:23:06;18.40;99.90
28520;DHT22;15732;48.534;20.382;2023-09-19T09:25:52;18.40;99.90
28520;DHT22;15732;48.534;20.382;2023-09-19T09:28:24;18.40;99.90
28520;DHT22;15732;48.534;20.382;2023-09-19T09:30:52;18.40;99.90
28520;DHT22;15732;48.534;20.382;2023-09-19T09:33:19;18.50;99.90
28520;DHT22;15732;48.534;20.382;2023-09-19T09:35:49;18.50;99.90
28520;DHT22;15732;48.534;20.382;2023-09-19T09:38:20;18.50;99.90
28520;DHT22;15732;48.534;20.382;2023-09-19T09:41:07;18.60;99.90
28520;DHT22;15732;48.534;20.382;2023-09-19T09:43:38;18.60;99.90
28520;DHT22;15732;48.534;20.382;2023-09-19T09:49:10;18.70;99.90
28520;DHT22;15732;48.534;20.382;2023-09-19T09:51:42;18.80;99.90
28520;DHT22;15732;48.534;20.382;2023-09-19T09:54:17;18.80;99.90
28520;DHT22;15732;48.534;20.382;2023-09-19T09:57:10;18.90;99.90
28520;DHT22;15732;48.534;20.382;2023-09-19T09:59:55;18.90;99.90
28520;DHT22;15732;48.534;20.382;2023-09-19T10:02:28;19.00;99.90
28520;DHT22;15732;48.534;20.382;2023-09-19T10:05:23;19.00;99.90
28520;DHT22;15732;48.534;20.382;2023-09-19T10:07:53;19.00;99.90
28520;DHT22;15732;48.534;20.382;2023-09-19T10:10:37;19.10;99.90
28520;DHT22;15732;48.534;20.382;2023-09-19T10:13:25;19.10;99.90
28520;DHT22;15732;48.534;20.382;2023-09-19T10:15:53;19.10;99.90
28520;DHT22;15732;48.534;20.382;2023-09-19T10:18:26;19.10;99.90
28520;DHT22;15732;48.534;20.382;2023-09-19T10:20:57;19.10;99.90
28520;DHT22;15732;48.534;20.382;2023-09-19T10:23:27;19.20;99.90
28520;DHT22;15732;48.534;20.382;2023-09-19T10:25:59;19.20;99.90
28520;DHT22;15732;48.534;20.382;2023-09-19T10:28:28;19.10;99.90
28520;DHT22;15732;48.534;20.382;2023-09-19T10:30:57;19.20;99.90
28520;DHT22;15732;48.534;20.382;2023-09-19T10:33:27;19.20;99.90
28520;DHT22;15732;48.534;20.382;2023-09-19T10:36:04;19.20;99.90
28520;DHT22;15732;48.534;20.382;2023-09-19T10:38:33;19.20;99.90
28520;DHT22;15732;48.534;20.382;2023-09-19T10:41:02;19.20;99.90
28520;DHT22;15732;48.534;20.382;2023-09-19T10:43:34;19.20;99.90
28520;DHT22;15732;48.534;20.382;2023-09-19T10:46:05;19.20;99.90
28520;DHT22;15732;48.534;20.382;2023-09-19T10:48:33;19.20;99.90
28520;DHT22;15732;48.534;20.382;2023-09-19T10:51:12;19.30;99.90
28520;DHT22;15732;48.534;20.382;2023-09-19T10:53:57;19.30;99.90
28520;DHT22;15732;48.534;20.382;2023-09-19T10:56:33;19.30;99.90
28520;DHT22;15732;48.534;20.382;2023-09-19T10:59:10;19.40;99.90
28520;DHT22;15732;48.534;20.382;2023-09-19T11:01:43;19.40;99.90
28520;DHT22;15732;48.534;20.382;2023-09-19T11:04:35;19.40;99.90
28520;DHT22;15732;48.534;20.382;2023-09-19T11:07:12;19.40;99.90
28520;DHT22;15732;48.534;20.382;2023-09-19T11:09:47;19.40;99.90
28520;DHT22;15732;48.534;20.382;2023-09-19T11:15:08;19.40;99.90
28520;DHT22;15732;48.534;20.382;2023-09-19T11:17:35;19.40;99.90
28520;DHT22;15732;48.534;20.382;2023-09-19T11:30:52;19.40;99.90
28520;DHT22;15732;48.534;20.382;2023-09-19T11:33:29;19.40;99.90
28520;DHT22;15732;48.534;20.382;2023-09-19T11:46:33;19.50;99.90
28520;DHT22;15732;48.534;20.382;2023-09-19T11:49:08;19.50;99.90
28520;DHT22;15732;48.534;20.382;2023-09-19T11:51:43;19.50;99.90
28520;DHT22;15732;48.534;20.382;2023-09-19T11:54:12;19.50;99.90
28520;DHT22;15732;48.534;20.382;2023-09-19T11:56:46;19.50;99.90
28520;DHT22;15732;48.534;20.382;2023-09-19T11:59:21;19.60;99.90
28520;DHT22;15732;48.534;20.382;2023-09-19T12:01:53;19.60;99.90
28520;DHT22;15732;48.534;20.382;2023-09-19T12:04:40;19.60;99.90
28520;DHT22;15732;48.534;20.382;2023-09-19T12:07:09;19.70;99.90
28520;DHT22;15732;48.534;20.382;2023-09-19T12:12:24;19.80;99.90
28520;DHT22;15732;48.534;20.382;2023-09-19T12:14:55;19.70;99.90
28520;DHT22;15732;48.534;20.382;2023-09-19T12:17:38;19.70;99.90
28520;DHT22;15732;48.534;20.382;2023-09-19T12:20:07;19.70;99.90
28520;DHT22;15732;48.534;20.382;2023-09-19T12:22:56;19.70;99.90
28520;DHT22;15732;48.534;20.382;2023-09-19T12:25:23;19.70;99.90
28520;DHT22;15732;48.534;20.382;2023-09-19T12:27:51;19.70;99.90
28520;DHT22;15732;48.534;20.382;2023-09-19T12:30:28;19.80;99.90
28520;DHT22;15732;48.534;20.382;2023-09-19T12:33:00;19.70;99.90
28520;DHT22;15732;48.534;20.382;2023-09-19T12:35:31;19.80;99.90
28520;DHT22;15732;48.534;20.382;2023-09-19T12:38:02;19.80;99.90
28520;DHT22;15732;48.534;20.382;2023-09-19T12:40:30;19.80;99.90
28520;DHT22;15732;48.534;20.382;2023-09-19T12:42:59;19.80;99.90
28520;DHT22;15732;48.534;20.382;2023-09-19T12:45:35;19.80;99.90
28520;DHT22;15732;48.534;20.382;2023-09-19T12:48:26;19.80;99.90
28520;DHT22;15732;48.534;20.382;2023-09-19T12:51:00;19.80;99.90
28520;DHT22;15732;48.534;20.382;2023-09-19T12:53:28;19.80;99.90
28520;DHT22;15732;48.534;20.382;2023-09-19T12:55:59;19.90;99.90
28520;DHT22;15732;48.534;20.382;2023-09-19T12:58:27;19.90;99.90
28520;DHT22;15732;48.534;20.382;2023-09-19T13:01:00;19.90;99.90
28520;DHT22;15732;48.534;20.382;2023-09-19T13:03:29;19.90;99.90
28520;DHT22;15732;48.534;20.382;2023-09-19T13:06:03;19.90;99.90
28520;DHT22;15732;48.534;20.382;2023-09-19T13:08:38;19.90;99.90
28520;DHT22;15732;48.534;20.382;2023-09-19T13:11:35;19.90;99.90
28520;DHT22;15732;48.534;20.382;2023-09-19T13:14:34;19.90;99.90
28520;DHT22;15732;48.534;20.382;2023-09-19T13:17:08;19.90;99.90
28520;DHT22;15732;48.534;20.382;2023-09-19T13:19:46;19.90;99.90
28520;DHT22;15732;48.534;20.382;2023-09-19T13:22:38;19.90;99.90
28520;DHT22;15732;48.534;20.382;2023-09-19T13:25:09;19.90;99.90
28520;DHT22;15732;48.534;20.382;2023-09-19T13:27:52;19.90;99.90
28520;DHT22;15732;48.534;20.382;2023-09-19T13:30:21;19.90;99.90
28520;DHT22;15732;48.534;20.382;2023-09-19T13:32:48;19.90;99.90
28520;DHT22;15732;48.534;20.382;2023-09-19T13:35:16;19.90;99.90
28520;DHT22;15732;48.534;20.382;2023-09-19T13:37:47;19.90;99.90
28520;DHT22;15732;48.534;20.382;2023-09-19T13:40:16;19.80;99.90
28520;DHT22;15732;48.534;20.382;2023-09-19T13:42:43;19.90;99.90
28520;DHT22;15732;48.534;20.382;2023-09-19T13:45:10;19.80;99.90
28520;DHT22;15732;48.534;20.382;2023-09-19T13:47:41;19.80;99.90
28520;DHT22;15732;48.534;20.382;2023-09-19T13:50:10;19.80;99.90
28520;DHT22;15732;48.534;20.382;2023-09-19T13:52:41;19.80;99.90
28520;DHT22;15732;48.534;20.382;2023-09-19T13:55:09;19.80;99.90
28520;DHT22;15732;48.534;20.382;2023-09-19T13:57:36;19.80;99.90
28520;DHT22;15732;48.534;20.382;2023-09-19T14:00:05;19.80;99.90
28520;DHT22;15732;48.534;20.382;2023-09-19T14:02:36;19.80;99.90
28520;DHT22;15732;48.534;20.382;2023-09-19T14:05:04;19.80;99.90
28520;DHT22;15732;48.534;20.382;2023-09-19T14:07:33;19.80;99.90
28520;DHT22;15732;48.534;20.382;2023-09-19T14:10:00;19.80;99.90
28520;DHT22;15732;48.534;20.382;2023-09-19T14:12:28;19.80;99.90
28520;DHT22;15732;48.534;20.382;2023-09-19T14:14:56;19.80;99.90
28520;DHT22;15732;48.534;20.382;2023-09-19T14:17:23;19.80;99.90
28520;DHT22;15732;48.534;20.382;2023-09-19T14:19:52;19.80;99.90
28520;DHT22;15732;48.534;20.382;2023-09-19T14:22:19;19.80;99.90
28520;DHT22;15732;48.534;20.382;2023-09-19T14:24:47;19.80;99.90
28520;DHT22;15732;48.534;20.382;2023-09-19T14:27:14;19.80;99.90
28520;DHT22;15732;48.534;20.382;2023-09-19T14:29:45;19.80;99.90
28520;DHT22;15732;48.534;20.382;2023-09-19T14:32:12;19.80;99.90
28520;DHT22;15732;48.534;20.382;2023-09-19T14:34:39;19.80;99.90
28520;DHT22;15732;48.534;20.382;2023-09-19T14:37:09;19.80;99.90
28520;DHT22;15732;48.534;20.382;2023-09-19T14:39:37;19.80;99.90
28520;DHT22;15732;48.534;20.382;2023-09-19T14:42:07;19.80;99.90
28520;DHT22;15732;48.534;20.382;2023-09-19T14:44:37;19.80;99.90
28520;DHT22;15732;48.534;20.382;2023-09-19T14:47:04;19.80;99.90
28520;DHT22;15732;48.534;20.382;2023-09-19T14:49:34;19.90;99.90
28520;DHT22;15732;48.534;20.382;2023-09-19T14:52:01;19.90;99.90
28520;DHT22;15732;48.534;20.382;2023-09-19T14:54:31;19.90;99.90
28520;DHT22;15732;48.534;20.382;2023-09-19T14:56:57;19.90;99.90
28520;DHT22;15732;48.534;20.382;2023-09-19T14:59:31;19.90;99.90
28520;DHT22;15732;48.534;20.382;2023-09-19T15:02:04;19.90;99.90
28520;DHT22;15732;48.534;20.382;2023-09-19T15:04:31;19.90;99.90
28520;DHT22;15732;48.534;20.382;2023-09-19T15:06:58;20.00;99.90
28520;DHT22;15732;48.534;20.382;2023-09-19T15:09:26;19.90;99.90
28520;DHT22;15732;48.534;20.382;2023-09-19T15:11:53;19.90;99.90
28520;DHT22;15732;48.534;20.382;2023-09-19T15:14:20;19.90;99.90
28520;DHT22;15732;48.534;20.382;2023-09-19T15:16:47;19.80;99.90
28520;DHT22;15732;48.534;20.382;2023-09-19T15:19:18;19.80;99.90
28520;DHT22;15732;48.534;20.382;2023-09-19T15:21:45;19.80;99.90
28520;DHT22;15732;48.534;20.382;2023-09-19T15:24:13;19.80;99.90
28520;DHT22;15732;48.534;20.382;2023-09-19T15:26:41;19.70;99.90
28520;DHT22;15732;48.534;20.382;2023-09-19T15:29:13;19.70;99.90
28520;DHT22;15732;48.534;20.382;2023-09-19T15:31:41;19.70;99.90
28520;DHT22;15732;48.534;20.382;2023-09-19T15:34:12;19.70;99.90
28520;DHT22;15732;48.534;20.382;2023-09-19T15:36:42;19.70;99.90
28520;DHT22;15732;48.534;20.382;2023-09-19T15:39:11;19.70;99.90
28520;DHT22;15732;48.534;20.382;2023-09-19T15:41:39;19.70;99.90
28520;DHT22;15732;48.534;20.382;2023-09-19T15:44:13;19.70;99.90
28520;DHT22;15732;48.534;20.382;2023-09-19T15:46:40;19.70;99.90
28520;DHT22;15732;48.534;20.382;2023-09-19T15:49:07;19.70;99.90
28520;DHT22;15732;48.534;20.382;2023-09-19T15:51:38;19.70;99.90
28520;DHT22;15732;48.534;20.382;2023-09-19T15:54:26;19.70;99.90
28520;DHT22;15732;48.534;20.382;2023-09-19T15:56:54;19.70;99.90
28520;DHT22;15732;48.534;20.382;2023-09-19T15:59:21;19.70;99.90
28520;DHT22;15732;48.534;20.382;2023-09-19T16:01:49;19.70;99.90
28520;DHT22;15732;48.534;20.382;2023-09-19T16:04:17;19.60;99.90
28520;DHT22;15732;48.534;20.382;2023-09-19T16:06:44;19.60;99.90
28520;DHT22;15732;48.534;20.382;2023-09-19T16:09:12;19.60;99.90
28520;DHT22;15732;48.534;20.382;2023-09-19T16:11:38;19.60;99.90
28520;DHT22;15732;48.534;20.382;2023-09-19T16:14:11;19.60;99.90
28520;DHT22;15732;48.534;20.382;2023-09-19T16:16:38;19.70;99.90
28520;DHT22;15732;48.534;20.382;2023-09-19T16:19:05;19.60;99.90
28520;DHT22;15732;48.534;20.382;2023-09-19T16:21:37;19.60;99.90
28520;DHT22;15732;48.534;20.382;2023-09-19T16:24:05;19.60;99.90
28520;DHT22;15732;48.534;20.382;2023-09-19T16:26:33;19.60;99.90